This is the latest recevied weather packets stored in our database for station/object N8ESC. If no packets are shown the sender has not sent any weather packets the latest 1 day(s).
| Time | Temp. | Humidity | Pressure | Rain* | Wind** | Luminosity | Snow |
|---|---|---|---|---|---|---|---|
| 1778070075 | 2.78° C | 64% | 1011.2 hPa | 0 mm | - | 98 W/m² | - |
| 1778068562 | 2.22° C | 64% | 1010.9 hPa | 0 mm | - | 60 W/m² | - |
| 1778067655 | 2.22° C | 67% | 1010.8 hPa | 0 mm | - | 53 W/m² | - |
| 1778066746 | 1.67° C | 68% | 1010.4 hPa | 0 mm | - | 39 W/m² | - |
| 1778065536 | 1.67° C | 66% | 1009.9 hPa | 0 mm | - | 19 W/m² | - |
| 1778064929 | 1.67° C | 66% | 1010.1 hPa | 0 mm | - | 16 W/m² | - |
| 1778064022 | 2.22° C | 63% | 1009.6 hPa | 0 mm | - | 6 W/m² | - |
| 1778063719 | 2.22° C | 63% | 1009.8 hPa | 0 mm | - | 4 W/m² | - |
| 1778062811 | 2.22° C | 62% | 1009.8 hPa | 0 mm | - | 0 W/m² | - |
| 1778062205 | 2.78° C | 61% | 1009.9 hPa | 0 mm | - | 0 W/m² | - |
| 1778061601 | 2.78° C | 61% | 1010 hPa | 0 mm | - | 0 W/m² | - |
| 1778060995 | 2.22° C | 62% | 1009.8 hPa | 0 mm | - | 0 W/m² | - |
| 1778060089 | 2.22° C | 63% | 1010.1 hPa | 0 mm | - | 0 W/m² | - |
| 1778059786 | 2.22° C | 63% | 1010 hPa | 0 mm | - | 0 W/m² | - |
| 1778059484 | 1.67° C | 63% | 1010.1 hPa | 0 mm | - | 0 W/m² | - |
| 1778059180 | 1.67° C | 64% | 1009.9 hPa | 0 mm | - | 0 W/m² | - |
| 1778058273 | 1.67° C | 64% | 1009.9 hPa | 0 mm | - | 0 W/m² | - |
| 1778057060 | 1.67° C | 65% | 1010.2 hPa | 0 mm | - | 0 W/m² | - |
| 1778056151 | 1.67° C | 66% | 1010 hPa | 0 mm | - | 0 W/m² | - |
| 1778055543 | 1.67° C | 66% | 1010.1 hPa | 0 mm | - | 0 W/m² | - |
| 1778054333 | 1.67° C | 61% | 1009.9 hPa | 0 mm | - | 0 W/m² | - |
| 1778054030 | 2.22° C | 60% | 1009.6 hPa | 0 mm | - | 0 W/m² | - |
| 1778053727 | 2.22° C | 60% | 1009.9 hPa | 0 mm | - | 0 W/m² | - |
| 1778053424 | 2.22° C | 59% | 1009.9 hPa | 0 mm | - | 0 W/m² | - |
| 1778052819 | 2.22° C | 58% | 1009.7 hPa | 0 mm | - | 0 W/m² | - |
* Rain latest hour (hover to see other rain measurements)
** Current wind speed in m/s (hover to see current wind gust speed)